MET'MAP v2.0
soon released !

Expected late october,
this new version will be
more efficient, smarter,
and hosted on a brand new
server x3 powerfull...
...and still free !


Not compatible ?
Try the mobile version !

LOG IN : | Subscribe | Disclaimer | Who is Orbifly ? |
ICAO code :
Legend : VFR Marginal VFR IFR Intensive IFR Very Intensive IFR
Visi :
Ceiling :
>= 8 km
>= 3000ft
5 to 8 km
1000 to 3000 ft
1500m to 5 km
500 to 1000 ft
800 to 1500m
200 to 500 ft
< 800m
< 200 ft

METAR - UKLL L'viv - 30 Mar 2020 12:58 UTC - Data Source NOAA   


- Airport Elevation : 1071 ft
- IATA code : LWO
- No reported NOTAMs.


UKLL - L'viv

Latest METAR recorded : 2015/08/11 08:00 UKLL 110800Z VRB01MPS CAVOK 29/13 Q1017 13CLRD80 NOSIG
TAF TAF UKLL
Valid from the 30 at 06:00 until the 31 at 06:00 UTC


300504Z 3006/3106 33006MPS 6000 BKN007 SCT020CB TXM01/3006Z TNM04/3103Z
TEMPO 3006/3008 34007G14MPS 0600 +SHSN BKN003 BKN015CB
TEMPO 3008/3012 2100 -SHSN BKN015CB
BECMG 3012/3014 31004MPS BKN020

Source NOAA


MET'MAP, your aeronautical weather chart ! - Copyright ORBIFLY December 2007

Programming & Development : Alexandra Zaïnal
Co-Developer : Marc-Olivier Méhu
Technical & hardware support : Manuel Goepfert
Concept & Financing : Baudouin d'Aumeries